page 4774 of 1009803 registered users

eBook PostsUsers

  1. 0lynx60jumper registered @ 2012-12-05 01:12:32, last login @ 2012-12-05 01:12:32
  2. 0shelfrake2 registered @ 2012-12-05 01:12:35, last login @ 2012-12-05 01:12:35
  3. 0singicicle3 registered @ 2012-12-05 01:12:39, last login @ 2012-12-05 01:54:36
  4. 0pinankle4 registered @ 2012-12-05 01:13:29, last login @ 2012-12-05 01:13:29
  5. 0violet10spike registered @ 2012-12-05 01:15:18, last login @ 2012-12-05 01:15:18
  6. 0celloankle51 registered @ 2012-12-05 01:16:25, last login @ 2012-12-05 01:16:25
  7. 0troutounce0 registered @ 2012-12-05 01:19:36, last login @ 2012-12-05 01:19:36
  8. 0latex03mind registered @ 2012-12-05 01:20:10, last login @ 2012-12-05 01:20:10
  9. 0ideastew58 registered @ 2012-12-05 01:20:58, last login @ 2012-12-05 01:20:58
  10. 0cereallace7 registered @ 2012-12-05 01:21:06, last login @ 2012-12-05 01:42:35
  11. 0skyprint34 registered @ 2012-12-05 01:21:24, last login @ 2012-12-05 01:21:24
  12. 0cable91bird registered @ 2012-12-05 01:21:41, last login @ 2012-12-05 01:52:03
  13. 0womanelbow96 registered @ 2012-12-05 01:22:03, last login @ 2012-12-05 01:56:36
  14. 0bronze66daniel registered @ 2012-12-05 01:22:35, last login @ 2012-12-05 01:22:35
  15. 0GaryHughes71 registered @ 2012-12-05 01:22:54, last login @ 2012-12-05 01:22:54
  16. 0louietemplet1128 registered @ 2012-12-05 01:23:11, last login @ 2012-12-05 01:23:11
  17. 0perustreet4 registered @ 2012-12-05 01:24:21, last login @ 2012-12-05 01:24:21
  18. 0grilltights03 registered @ 2012-12-05 01:25:13, last login @ 2012-12-05 01:25:13
  19. 0bear87bush registered @ 2012-12-05 01:25:48, last login @ 2012-12-05 01:25:48
  20. 0tv71pigeon registered @ 2012-12-05 01:26:15, last login @ 2012-12-05 01:26:15
  21. 0pisces2weed registered @ 2012-12-05 01:26:28, last login @ 2012-12-05 01:26:28
  22. 0attichockey72 registered @ 2012-12-05 01:26:43, last login @ 2012-12-05 01:26:43
  23. 0kevin21tanker registered @ 2012-12-05 01:27:56, last login @ 2012-12-05 01:27:56
  24. 0tailaries75 registered @ 2012-12-05 01:27:59, last login @ 2012-12-05 01:27:59
  25. 0slimeagenda73 registered @ 2012-12-05 01:28:45, last login @ 2012-12-05 01:51:37
  26. 0answer33museum registered @ 2012-12-05 01:28:45, last login @ 2012-12-05 01:28:45
  27. 0beam8curve registered @ 2012-12-05 01:29:42, last login @ 2012-12-05 02:00:12
  28. 0sensepipe9 registered @ 2012-12-05 01:29:47, last login @ 2012-12-05 01:29:47
  29. 0chessgrowth57 registered @ 2012-12-05 01:30:18, last login @ 2012-12-05 01:30:18
  30. 0animefrench57 registered @ 2012-12-05 01:30:29, last login @ 2012-12-05 01:30:29
  31. 0fightcough1 registered @ 2012-12-05 01:30:43, last login @ 2012-12-05 01:30:43
  32. 0care27straw registered @ 2012-12-05 01:32:15, last login @ 2012-12-05 01:32:15
  33. 0phone1toilet registered @ 2012-12-05 01:32:29, last login @ 2012-12-05 01:32:29
  34. 0enginesword66 registered @ 2012-12-05 01:33:08, last login @ 2012-12-05 01:33:08
  35. 0kalelion1 registered @ 2012-12-05 01:33:40, last login @ 2012-12-05 01:33:40
  36. 0dog52foam registered @ 2012-12-05 01:33:41, last login @ 2012-12-05 01:33:41
  37. 0bluejeep00 registered @ 2012-12-05 01:34:02, last login @ 2012-12-05 01:34:02
  38. 0scene08land registered @ 2012-12-05 01:34:11, last login @ 2012-12-05 01:34:11
  39. 0bun87father registered @ 2012-12-05 01:34:26, last login @ 2012-12-05 01:34:26
  40. 0karate60cattle registered @ 2012-12-05 01:34:31, last login @ 2012-12-05 01:34:31
  41. 0steamwedge8 registered @ 2012-12-05 01:35:53, last login @ 2012-12-05 01:35:53
  42. 0gauge71fall registered @ 2012-12-05 01:36:44, last login @ 2012-12-05 01:36:44
  43. 0marcoahqs9x1cx registered @ 2012-12-05 01:37:03, last login @ 2012-12-05 01:37:03
  44. 0flavor97thumb registered @ 2012-12-05 01:37:05, last login @ 2012-12-05 01:37:05
  45. 0lace7beech registered @ 2012-12-05 01:39:11, last login @ 2012-12-05 01:39:11
  46. 0cafe80gold registered @ 2012-12-05 01:39:16, last login @ 2012-12-05 01:39:16
  47. 0noodleneed7 registered @ 2012-12-05 01:39:17, last login @ 2012-12-05 01:39:17
  48. 0peanutstem38 registered @ 2012-12-05 01:40:38, last login @ 2012-12-05 01:40:38
  49. 0sled1handle registered @ 2012-12-05 01:40:49, last login @ 2012-12-05 01:40:49
  50. 0tent7sky registered @ 2012-12-05 01:40:59, last login @ 2012-12-05 01:40:59
  51. 0desk0brain registered @ 2012-12-05 01:42:26, last login @ 2012-12-05 01:42:26
  52. 0fingerfarmer6 registered @ 2012-12-05 01:42:45, last login @ 2012-12-05 01:42:45
  53. 0heronwitch4 registered @ 2012-12-05 01:43:05, last login @ 2012-12-05 01:43:05
  54. 0lynx85bag registered @ 2012-12-05 01:44:04, last login @ 2012-12-05 01:44:04
  55. 0snow04banana registered @ 2012-12-05 01:44:45, last login @ 2012-12-05 01:44:45
  56. 0vahylipricu891 registered @ 2012-12-05 01:46:24, last login @ 2012-12-05 01:46:24
  57. 0perchzoo37 registered @ 2012-12-05 01:47:21, last login @ 2012-12-05 01:47:21
  58. 0kayak21otter registered @ 2012-12-05 01:47:27, last login @ 2012-12-05 01:47:27
  59. 0hedge50find registered @ 2012-12-05 01:48:14, last login @ 2012-12-05 01:48:14
  60. 0pianobadger1 registered @ 2012-12-05 01:48:23, last login @ 2012-12-05 01:48:23
  61. 0peacheese0 registered @ 2012-12-05 01:48:42, last login @ 2012-12-05 01:48:42
  62. 0coricujbavu444 registered @ 2012-12-05 01:49:22, last login @ 2012-12-05 01:49:22
  63. 0poet50leo registered @ 2012-12-05 01:49:31, last login @ 2012-12-05 01:49:31
  64. 0layerdoubt8 registered @ 2012-12-05 01:49:45, last login @ 2012-12-05 01:49:45
  65. 0paperresult21 registered @ 2012-12-05 01:50:11, last login @ 2012-12-05 01:50:11
  66. 0chordmaple37 registered @ 2012-12-05 01:51:13, last login @ 2012-12-05 01:51:13
  67. 0soilairbus14 registered @ 2012-12-05 01:52:35, last login @ 2012-12-05 01:52:35
  68. 0officefowl93 registered @ 2012-12-05 01:54:06, last login @ 2012-12-05 01:54:06
  69. 0bullsandra6 registered @ 2012-12-05 01:54:43, last login @ 2012-12-05 01:54:43
  70. 0dewview82 registered @ 2012-12-05 01:54:48, last login @ 2012-12-05 01:54:48
  71. 0pocket5puppy registered @ 2012-12-05 01:54:58, last login @ 2012-12-05 01:54:58
  72. 0mankarate15 registered @ 2012-12-05 01:55:29, last login @ 2012-12-05 01:55:29
  73. 0map3yam registered @ 2012-12-05 01:55:33, last login @ 2012-12-05 01:55:33
  74. 0puppy92place registered @ 2012-12-05 01:55:33, last login @ 2012-12-05 01:55:33
  75. 0cheffreon8 registered @ 2012-12-05 01:57:13, last login @ 2012-12-05 01:57:13
  76. 0riskparcel20 registered @ 2012-12-05 01:57:53, last login @ 2012-12-05 01:57:53
  77. 0dimplelarch9 registered @ 2012-12-05 01:58:42, last login @ 2012-12-05 01:58:42
  78. 0personlaugh52 registered @ 2012-12-05 01:59:49, last login @ 2012-12-05 01:59:49
  79. 0guilty62whip registered @ 2012-12-05 02:01:32, last login @ 2012-12-05 02:01:32
  80. 0taurusnight3 registered @ 2012-12-05 02:02:23, last login @ 2012-12-05 02:47:45
  81. 0girl59silver registered @ 2012-12-05 02:04:18, last login @ 2012-12-05 02:04:18
  82. 0chairend15 registered @ 2012-12-05 02:04:33, last login @ 2012-12-05 02:04:33
  83. 0buttoncake67 registered @ 2012-12-05 02:06:44, last login @ 2012-12-05 02:06:44
  84. 0link3hip registered @ 2012-12-05 02:06:44, last login @ 2012-12-05 02:06:44
  85. 0hip36appeal registered @ 2012-12-05 02:07:02, last login @ 2012-12-05 02:07:02
  86. 0ideatower8 registered @ 2012-12-05 02:07:18, last login @ 2012-12-05 02:07:18
  87. 0cause89angle registered @ 2012-12-05 02:07:31, last login @ 2012-12-05 02:07:31
  88. 0shellinahaji registered @ 2012-12-05 02:07:46, last login @ 2012-12-05 02:07:46
  89. 0carolreward2 registered @ 2012-12-05 02:08:45, last login @ 2012-12-05 02:08:45
  90. 0screw88snail registered @ 2012-12-05 02:08:59, last login @ 2012-12-05 02:08:59
  91. 0banjo4goose registered @ 2012-12-05 02:09:35, last login @ 2012-12-05 02:09:35
  92. 0mine7beggar registered @ 2012-12-05 02:11:01, last login @ 2012-12-05 02:11:01
  93. 0gilmore423 registered @ 2012-12-05 02:11:06, last login @ 2012-12-05 02:11:06
  94. 0beech65men registered @ 2012-12-05 02:11:15, last login @ 2012-12-05 02:11:15
  95. 0donaldback46 registered @ 2012-12-05 02:11:32, last login @ 2012-12-05 02:55:26
  96. 0lineporter4 registered @ 2012-12-05 02:13:11, last login @ 2012-12-05 02:25:32
  97. 0pyjamamind8 registered @ 2012-12-05 02:14:32, last login @ 2012-12-05 02:14:32
  98. 0maximgates922 registered @ 2012-12-05 02:14:48, last login @ 2012-12-05 02:14:48
  99. 0racing8fir registered @ 2012-12-05 02:15:06, last login @ 2012-12-05 02:15:06
  100. 0tankerscene60 registered @ 2012-12-05 02:16:06, last login @ 2012-12-05 02:57:38
  101. 0EmbogmaElaria registered @ 2012-12-05 02:17:21, last login @ 2012-12-05 02:17:21

More...

[4784] [4783] [4782] [4781] [4780] [4779] [4778] [4777] [4776] [4775] [4774] [4773] [4772] [4771] [4770] [4769] [4768] [4767] [4766] [4765] ...[1]
Back to Top